Time;durP1;ratioP1;P1;durP2;ratioP2;P2;SDS_P1;SDS_P2;PMS_P1;PMS_P2;Temp;Humidity;BMP_temperature;BMP_pressure;BME280_temperature;BME280_humidity;BME280_pressure;Samples;Min_cycle;Max_cycle;Signal;HPM_P1;HPM_P2
2023/09/19 00:01:58;;;;;;;9.90;8.90;;;;;;;;;;110302;267;42842;-37
2023/09/19 00:04:34;;;;;;;10.20;9.20;;;;;;;;;;110278;267;43231;-37
2023/09/19 00:07:09;;;;;;;9.80;8.80;;;;;;;;;;110350;267;39962;-37
2023/09/19 00:09:48;;;;;;;10.70;9.20;;;;;;;;;;110330;267;40049;-37
2023/09/19 00:12:23;;;;;;;9.80;8.80;;;;;;;;;;110350;267;42846;-37
2023/09/19 00:15:01;;;;;;;10.00;9.00;;;;;;;;;;110300;267;43245;-37
2023/09/19 00:17:37;;;;;;;10.10;9.10;;;;;;;;;;110321;267;38699;-37
2023/09/19 00:20:15;;;;;;;9.80;8.80;;;;;;;;;;110311;267;39554;-37
2023/09/19 00:22:54;;;;;;;10.30;9.30;;;;;;;;;;110339;267;43165;-37
2023/09/19 00:25:29;;;;;;;9.70;8.70;;;;;;;;;;110109;268;175517;-37
2023/09/19 00:28:03;;;;;;;10.30;9.20;;;;;;;;;;110321;267;38673;-37
2023/09/19 00:30:43;;;;;;;10.40;9.40;;;;;;;;;;110375;267;39609;-37
2023/09/19 00:33:18;;;;;;;10.10;9.10;;;;;;;;;;110299;267;42850;-37
2023/09/19 00:35:53;;;;;;;10.60;9.30;;;;;;;;;;110274;267;42943;-36
2023/09/19 00:38:28;;;;;;;10.80;9.70;;;;;;;;;;110288;267;38495;-36
2023/09/19 00:41:04;;;;;;;10.00;9.00;;;;;;;;;;110333;268;39720;-37
2023/09/19 00:43:40;;;;;;;10.30;8.90;;;;;;;;;;110306;267;44253;-36
2023/09/19 00:46:17;;;;;;;10.50;9.50;;;;;;;;;;110270;268;42216;-36
2023/09/19 00:48:52;;;;;;;9.70;8.70;;;;;;;;;;110248;267;38846;-36
2023/09/19 00:51:27;;;;;;;10.00;9.00;;;;;;;;;;110251;268;39606;-36
2023/09/19 00:54:05;;;;;;;10.10;9.00;;;;;;;;;;110268;268;44009;-36
2023/09/19 00:56:40;;;;;;;10.20;9.20;;;;;;;;;;110238;267;43382;-36
2023/09/19 00:59:14;;;;;;;10.30;9.30;;;;;;;;;;110242;267;38841;-36
2023/09/19 01:02:00;;;;;;;10.50;9.30;;;;;;;;;;109634;267;891624;-36
2023/09/19 01:04:36;;;;;;;10.20;9.10;;;;;;;;;;110316;268;42531;-36
2023/09/19 01:07:14;;;;;;;10.60;9.50;;;;;;;;;;110257;267;42099;-36
2023/09/19 01:09:49;;;;;;;10.60;9.50;;;;;;;;;;110333;267;38640;-36
2023/09/19 01:12:34;;;;;;;10.50;9.40;;;;;;;;;;110307;267;39791;-36
2023/09/19 01:15:17;;;;;;;10.40;9.30;;;;;;;;;;110174;268;175492;-36
2023/09/19 01:18:24;;;;;;;10.30;9.10;;;;;;;;;;110261;267;48039;-36
2023/09/19 01:21:07;;;;;;;10.50;9.40;;;;;;;;;;110344;268;38838;-36
2023/09/19 01:24:16;;;;;;;10.20;9.10;;;;;;;;;;110344;267;40074;-36
2023/09/19 01:27:14;;;;;;;10.50;9.50;;;;;;;;;;110258;267;42802;-36
2023/09/19 01:29:50;;;;;;;10.40;9.30;;;;;;;;;;110309;267;42045;-36
2023/09/19 01:32:28;;;;;;;10.40;9.30;;;;;;;;;;110315;267;38634;-36
2023/09/19 01:35:04;;;;;;;10.00;9.00;;;;;;;;;;110295;267;39864;-36
2023/09/19 01:37:43;;;;;;;10.10;9.10;;;;;;;;;;110251;267;44045;-36
2023/09/19 01:40:21;;;;;;;10.40;9.40;;;;;;;;;;110300;267;42178;-36
2023/09/19 01:43:13;;;;;;;10.30;9.20;;;;;;;;;;110297;268;39073;-36
2023/09/19 01:45:52;;;;;;;;;;;;;;;;;;110328;268;39769;-36
2023/09/19 01:48:42;;;;;;;10.30;9.20;;;;;;;;;;110263;267;50647;-36
2023/09/19 01:51:22;;;;;;;10.10;9.10;;;;;;;;;;110307;267;42237;-36
2023/09/19 01:54:03;;;;;;;10.70;9.60;;;;;;;;;;110302;267;38843;-36
2023/09/19 01:56:46;;;;;;;10.30;9.20;;;;;;;;;;110244;267;39602;-36
2023/09/19 01:59:24;;;;;;;10.50;9.50;;;;;;;;;;110323;268;45044;-36
2023/09/19 02:01:59;;;;;;;10.40;9.30;;;;;;;;;;110143;268;175534;-37
2023/09/19 02:04:35;;;;;;;10.30;9.20;;;;;;;;;;110290;267;38693;-37
2023/09/19 02:07:08;;;;;;;10.30;9.20;;;;;;;;;;110275;260;39668;-36
2023/09/19 02:09:42;;;;;;;10.90;9.80;;;;;;;;;;110306;267;42792;-37
2023/09/19 02:12:19;;;;;;;11.00;9.90;;;;;;;;;;110285;267;42458;-36
2023/09/19 02:14:54;;;;;;;10.50;9.40;;;;;;;;;;110312;267;38844;-36
2023/09/19 02:17:33;;;;;;;10.70;9.60;;;;;;;;;;110239;267;39723;-37
2023/09/19 02:20:16;;;;;;;10.40;9.30;;;;;;;;;;110264;267;44139;-37
2023/09/19 02:22:52;;;;;;;10.80;9.70;;;;;;;;;;110271;267;43748;-37
2023/09/19 02:25:26;;;;;;;10.70;9.60;;;;;;;;;;110259;267;40323;-37
2023/09/19 02:28:02;;;;;;;10.80;9.70;;;;;;;;;;110177;268;40902;-37
2023/09/19 02:30:37;;;;;;;10.60;9.50;;;;;;;;;;110295;268;42829;-36
2023/09/19 02:33:12;;;;;;;10.70;9.60;;;;;;;;;;110260;267;42103;-37
2023/09/19 02:35:47;;;;;;;10.20;9.20;;;;;;;;;;110278;267;40975;-37
2023/09/19 02:38:24;;;;;;;10.40;9.40;;;;;;;;;;110277;267;40679;-37
2023/09/19 02:41:00;;;;;;;10.60;9.50;;;;;;;;;;110171;267;175500;-37
2023/09/19 02:43:39;;;;;;;10.00;9.00;;;;;;;;;;110307;267;42376;-37
2023/09/19 02:46:19;;;;;;;10.90;9.80;;;;;;;;;;110318;267;38843;-37
2023/09/19 02:48:55;;;;;;;11.00;9.80;;;;;;;;;;110285;267;39561;-37
2023/09/19 02:51:30;;;;;;;10.60;9.60;;;;;;;;;;110337;267;44223;-37
2023/09/19 02:54:08;;;;;;;10.10;9.10;;;;;;;;;;110326;267;43501;-37
2023/09/19 02:56:50;;;;;;;10.30;9.30;;;;;;;;;;110390;267;40032;-37
2023/09/19 02:59:26;;;;;;;11.00;9.90;;;;;;;;;;110280;267;40845;-37
2023/09/19 03:02:04;;;;;;;10.40;9.40;;;;;;;;;;110341;267;42986;-37
2023/09/19 03:04:38;;;;;;;10.80;9.70;;;;;;;;;;110209;268;175492;-37
2023/09/19 03:07:12;;;;;;;10.40;9.40;;;;;;;;;;110335;267;39944;-37
2023/09/19 03:09:47;;;;;;;10.20;9.20;;;;;;;;;;110303;267;39313;-37
2023/09/19 03:12:22;;;;;;;10.20;9.20;;;;;;;;;;110351;267;42762;-37
2023/09/19 03:14:59;;;;;;;10.50;9.40;;;;;;;;;;110313;267;42078;-37
2023/09/19 03:17:35;;;;;;;10.50;9.40;;;;;;;;;;110387;267;40195;-37
2023/09/19 03:20:14;;;;;;;10.90;9.70;;;;;;;;;;110271;267;39624;-37
2023/09/19 03:22:49;;;;;;;10.60;9.50;;;;;;;;;;110356;267;44259;-37
2023/09/19 03:25:24;;;;;;;10.60;9.50;;;;;;;;;;110254;267;175527;-36
2023/09/19 03:28:00;;;;;;;11.20;9.80;;;;;;;;;;110340;267;39900;-37
2023/09/19 03:30:36;;;;;;;11.20;10.00;;;;;;;;;;110288;267;47145;-37
2023/09/19 03:33:11;;;;;;;10.80;9.70;;;;;;;;;;110307;267;42885;-37
2023/09/19 03:35:47;;;;;;;11.20;10.10;;;;;;;;;;110349;267;42379;-37
2023/09/19 03:38:21;;;;;;;10.30;9.30;;;;;;;;;;110377;267;38840;-37
2023/09/19 03:40:55;;;;;;;10.80;9.80;;;;;;;;;;110322;267;46860;-37
2023/09/19 03:43:28;;;;;;;11.30;9.90;;;;;;;;;;110354;267;45121;-37
2023/09/19 03:46:07;;;;;;;10.00;9.00;;;;;;;;;;110324;267;41986;-37
2023/09/19 03:48:43;;;;;;;11.20;10.00;;;;;;;;;;110352;267;38758;-37
2023/09/19 03:51:17;;;;;;;10.80;9.70;;;;;;;;;;110446;267;45617;-37
2023/09/19 03:53:52;;;;;;;10.60;9.60;;;;;;;;;;110311;267;43415;-37
2023/09/19 03:56:25;;;;;;;11.20;10.00;;;;;;;;;;110303;267;42241;-37
2023/09/19 03:58:59;;;;;;;11.40;10.10;;;;;;;;;;110230;268;39692;-36
2023/09/19 04:01:33;;;;;;;10.60;9.60;;;;;;;;;;110279;267;45290;-37
2023/09/19 04:04:10;;;;;;;11.10;10.00;;;;;;;;;;110323;268;44118;-37
2023/09/19 04:06:45;;;;;;;11.00;9.90;;;;;;;;;;110351;267;42094;-37
2023/09/19 04:09:18;;;;;;;11.10;10.00;;;;;;;;;;110351;267;39934;-37
2023/09/19 04:11:53;;;;;;;10.80;9.70;;;;;;;;;;110326;267;47485;-37
2023/09/19 04:14:27;;;;;;;10.80;9.70;;;;;;;;;;110377;267;43002;-37
2023/09/19 04:17:05;;;;;;;10.50;9.50;;;;;;;;;;110321;267;42094;-36
2023/09/19 04:19:42;;;;;;;10.80;9.70;;;;;;;;;;110314;267;39155;-37
2023/09/19 04:22:16;;;;;;;10.80;9.70;;;;;;;;;;110328;267;46060;-37
2023/09/19 04:24:54;;;;;;;11.00;9.90;;;;;;;;;;110372;267;43219;-37
2023/09/19 04:27:27;;;;;;;11.10;10.00;;;;;;;;;;110340;267;42302;-37
2023/09/19 04:30:10;;;;;;;10.30;9.20;;;;;;;;;;110197;268;175505;-37
2023/09/19 04:32:43;;;;;;;10.50;9.40;;;;;;;;;;110303;267;46209;-36
2023/09/19 04:35:25;;;;;;;10.80;9.70;;;;;;;;;;110334;267;42471;-36
2023/09/19 04:37:58;;;;;;;11.10;9.90;;;;;;;;;;110312;268;43295;-37
2023/09/19 04:40:34;;;;;;;10.50;9.40;;;;;;;;;;110296;268;38796;-37
2023/09/19 04:43:07;;;;;;;10.70;9.70;;;;;;;;;;110329;267;40976;-37
2023/09/19 04:45:46;;;;;;;10.60;9.50;;;;;;;;;;110373;267;43913;-37
2023/09/19 04:48:20;;;;;;;10.60;9.60;;;;;;;;;;110359;267;42042;-37
2023/09/19 04:50:54;;;;;;;10.50;9.50;;;;;;;;;;110320;267;38832;-37
2023/09/19 04:53:27;;;;;;;10.90;9.80;;;;;;;;;;110371;267;39968;-36
2023/09/19 04:56:03;;;;;;;11.10;9.60;;;;;;;;;;110306;267;44120;-37
2023/09/19 04:58:39;;;;;;;10.70;9.60;;;;;;;;;;110323;267;42193;-37
2023/09/19 05:01:15;;;;;;;11.00;9.90;;;;;;;;;;110327;267;38795;-37
2023/09/19 05:03:52;;;;;;;10.30;9.30;;;;;;;;;;110347;267;39764;-37
2023/09/19 05:06:26;;;;;;;10.60;9.50;;;;;;;;;;110367;267;44073;-37
2023/09/19 05:09:01;;;;;;;11.00;9.90;;;;;;;;;;110378;267;42418;-37
2023/09/19 05:11:34;;;;;;;10.70;9.60;;;;;;;;;;110293;267;38724;-37
2023/09/19 05:14:11;;;;;;;11.10;9.90;;;;;;;;;;110315;267;40865;-37
2023/09/19 05:16:44;;;;;;;10.90;9.80;;;;;;;;;;110343;267;43976;-37
2023/09/19 05:19:18;;;;;;;10.70;9.60;;;;;;;;;;110314;267;42192;-37
2023/09/19 05:21:52;;;;;;;10.50;9.40;;;;;;;;;;110329;267;38721;-37
2023/09/19 05:24:28;;;;;;;11.00;9.70;;;;;;;;;;110367;267;39769;-37
2023/09/19 05:27:07;;;;;;;10.90;9.60;;;;;;;;;;110347;267;42442;-37
2023/09/19 05:29:41;;;;;;;10.90;9.50;;;;;;;;;;110359;267;43971;-37
2023/09/19 05:32:19;;;;;;;10.80;9.60;;;;;;;;;;110306;267;39864;-37
2023/09/19 05:34:56;;;;;;;10.50;9.40;;;;;;;;;;110254;267;175518;-37
2023/09/19 05:37:30;;;;;;;10.80;9.60;;;;;;;;;;110371;268;42782;-37
2023/09/19 05:40:10;;;;;;;10.60;9.50;;;;;;;;;;110358;267;42198;-37
2023/09/19 05:42:44;;;;;;;10.20;9.20;;;;;;;;;;110303;267;38757;-37
2023/09/19 05:45:22;;;;;;;11.20;9.60;;;;;;;;;;110386;267;39973;-37
2023/09/19 05:48:01;;;;;;;10.70;9.50;;;;;;;;;;110315;267;43665;-37
2023/09/19 05:50:34;;;;;;;10.50;9.10;;;;;;;;;;110366;267;42479;-37
2023/09/19 05:53:11;;;;;;;10.60;9.30;;;;;;;;;;110285;267;38707;-37
2023/09/19 05:55:49;;;;;;;11.20;10.00;;;;;;;;;;110346;267;39635;-36
2023/09/19 05:58:24;;;;;;;10.60;9.50;;;;;;;;;;110287;268;43298;-37
2023/09/19 06:01:00;;;;;;;12.40;9.50;;;;;;;;;;110307;267;42213;-37
2023/09/19 06:03:36;;;;;;;10.80;9.70;;;;;;;;;;110291;267;38796;-37
2023/09/19 06:06:16;;;;;;;10.30;9.20;;;;;;;;;;110318;268;39502;-37
2023/09/19 06:08:50;;;;;;;10.60;9.00;;;;;;;;;;110305;267;42932;-37
2023/09/19 06:11:26;;;;;;;11.00;9.90;;;;;;;;;;110324;267;42152;-37
2023/09/19 06:14:02;;;;;;;11.00;9.80;;;;;;;;;;110314;267;38697;-37
2023/09/19 06:16:38;;;;;;;10.70;9.60;;;;;;;;;;110351;267;40973;-37
2023/09/19 06:19:17;;;;;;;10.70;9.30;;;;;;;;;;110248;268;42488;-37
2023/09/19 06:21:55;;;;;;;11.30;9.60;;;;;;;;;;110334;267;42047;-36
2023/09/19 06:24:30;;;;;;;10.80;9.10;;;;;;;;;;110242;268;38501;-37
2023/09/19 06:27:08;;;;;;;10.20;9.10;;;;;;;;;;110311;267;39296;-37
2023/09/19 06:29:44;;;;;;;10.40;9.30;;;;;;;;;;110313;267;42533;-38
2023/09/19 06:32:21;;;;;;;10.40;9.30;;;;;;;;;;110347;267;43191;-38
2023/09/19 06:34:59;;;;;;;10.40;9.30;;;;;;;;;;110431;267;38741;-35
2023/09/19 06:37:34;;;;;;;10.20;9.10;;;;;;;;;;110333;267;39576;-36
2023/09/19 06:40:13;;;;;;;10.60;9.50;;;;;;;;;;110286;267;43048;-36
2023/09/19 06:42:52;;;;;;;10.50;9.40;;;;;;;;;;110330;267;42051;-36
2023/09/19 06:45:28;;;;;;;10.50;9.40;;;;;;;;;;110285;268;46010;-37
2023/09/19 06:48:06;;;;;;;10.20;9.20;;;;;;;;;;110172;267;175473;-38
2023/09/19 06:50:41;;;;;;;10.30;9.30;;;;;;;;;;110325;267;42904;-38
2023/09/19 06:53:20;;;;;;;10.30;9.30;;;;;;;;;;110258;267;43304;-38
2023/09/19 06:55:57;;;;;;;10.60;9.50;;;;;;;;;;110316;268;39139;-37
2023/09/19 06:58:32;;;;;;;11.10;10.00;;;;;;;;;;110330;267;41952;-38
2023/09/19 07:01:08;;;;;;;11.50;9.50;;;;;;;;;;110212;267;175530;-38
2023/09/19 07:03:41;;;;;;;10.90;9.70;;;;;;;;;;110249;267;42088;-38
2023/09/19 07:06:24;;;;;;;11.50;10.20;;;;;;;;;;110291;267;38834;-38
2023/09/19 07:09:00;;;;;;;11.20;9.50;;;;;;;;;;110291;267;41592;-38
2023/09/19 07:11:37;;;;;;;10.80;9.70;;;;;;;;;;110296;267;43141;-37
2023/09/19 07:14:15;;;;;;;11.20;10.00;;;;;;;;;;110237;267;44428;-38
2023/09/19 07:16:50;;;;;;;12.60;10.20;;;;;;;;;;110298;267;38921;-38
2023/09/19 07:19:29;;;;;;;11.20;10.00;;;;;;;;;;110280;268;39768;-38
2023/09/19 07:22:07;;;;;;;11.60;10.40;;;;;;;;;;110301;267;43087;-38
2023/09/19 07:24:42;;;;;;;12.10;10.20;;;;;;;;;;110299;267;42374;-38
2023/09/19 07:27:19;;;;;;;11.90;10.50;;;;;;;;;;110301;267;39988;-38
2023/09/19 07:29:54;;;;;;;11.70;9.90;;;;;;;;;;110288;267;41199;-38
2023/09/19 07:32:30;;;;;;;11.00;9.80;;;;;;;;;;110297;267;42752;-38
2023/09/19 07:35:05;;;;;;;12.10;10.10;;;;;;;;;;110253;267;42032;-45
2023/09/19 07:37:38;;;;;;;11.20;10.00;;;;;;;;;;110340;258;39756;-38
2023/09/19 07:40:14;;;;;;;11.10;9.90;;;;;;;;;;110348;266;39659;-38
2023/09/19 07:42:47;;;;;;;11.20;9.70;;;;;;;;;;110289;260;42965;-38
2023/09/19 07:45:25;;;;;;;10.70;9.40;;;;;;;;;;110209;263;175505;-37
2023/09/19 07:48:01;;;;;;;11.40;10.20;;;;;;;;;;110286;260;38506;-38
2023/09/19 07:50:36;;;;;;;9.80;8.50;;;;;;;;;;110236;258;175514;-38
2023/09/19 07:53:10;;;;;;;10.80;9.70;;;;;;;;;;110359;266;44862;-38
2023/09/19 07:55:47;;;;;;;10.90;8.60;;;;;;;;;;110095;266;175428;-39
2023/09/19 07:58:22;;;;;;;10.30;9.30;;;;;;;;;;110374;263;38693;-37
2023/09/19 08:00:56;;;;;;;9.60;8.60;;;;;;;;;;110388;266;39761;-37
2023/09/19 08:03:29;;;;;;;9.80;8.80;;;;;;;;;;110365;266;44166;-37
2023/09/19 08:06:04;;;;;;;10.10;9.10;;;;;;;;;;110333;266;42018;-37
2023/09/19 08:08:38;;;;;;;10.10;9.10;;;;;;;;;;110398;266;38627;-40
2023/09/19 08:11:12;;;;;;;10.60;9.20;;;;;;;;;;110329;266;39777;-36
2023/09/19 08:13:50;;;;;;;10.10;9.10;;;;;;;;;;110346;266;42933;-38
2023/09/19 08:16:24;;;;;;;10.30;9.20;;;;;;;;;;110213;268;42125;-37
2023/09/19 08:18:58;;;;;;;9.90;8.90;;;;;;;;;;110351;263;38918;-37
2023/09/19 08:21:31;;;;;;;10.20;9.10;;;;;;;;;;110344;266;39724;-38
2023/09/19 08:24:05;;;;;;;10.00;9.00;;;;;;;;;;110356;260;44381;-36
2023/09/19 08:26:38;;;;;;;10.10;9.10;;;;;;;;;;110351;263;42042;-37
2023/09/19 08:29:12;;;;;;;9.80;8.80;;;;;;;;;;110408;266;38980;-36
2023/09/19 08:31:47;;;;;;;10.50;8.70;;;;;;;;;;110369;266;39451;-35
2023/09/19 08:34:21;;;;;;;9.90;8.90;;;;;;;;;;110350;266;42488;-35
2023/09/19 08:36:56;;;;;;;9.80;8.80;;;;;;;;;;110299;260;42147;-36
2023/09/19 08:39:36;;;;;;;9.90;8.70;;;;;;;;;;110339;259;39125;-36
2023/09/19 08:42:12;;;;;;;9.60;8.60;;;;;;;;;;110394;266;40991;-36
2023/09/19 08:44:46;;;;;;;9.50;8.50;;;;;;;;;;110375;265;42737;-36
2023/09/19 08:47:27;;;;;;;9.60;8.60;;;;;;;;;;110240;268;42039;-35
2023/09/19 08:50:12;;;;;;;9.40;8.40;;;;;;;;;;110404;264;38786;-35
2023/09/19 08:52:49;;;;;;;9.40;8.40;;;;;;;;;;110340;266;39596;-36
2023/09/19 08:55:30;;;;;;;9.30;8.30;;;;;;;;;;110378;260;42738;-37
2023/09/19 08:58:06;;;;;;;9.30;8.30;;;;;;;;;;110402;266;48174;-37
2023/09/19 09:00:42;;;;;;;9.60;8.30;;;;;;;;;;110369;263;38933;-37
2023/09/19 09:03:21;;;;;;;9.50;8.50;;;;;;;;;;110387;266;39972;-37
2023/09/19 09:05:55;;;;;;;10.00;9.00;;;;;;;;;;110491;264;44052;-37
2023/09/19 09:08:28;;;;;;;9.10;8.20;;;;;;;;;;110321;266;48567;-38
2023/09/19 09:11:02;;;;;;;9.60;8.60;;;;;;;;;;110402;263;38705;-38
2023/09/19 09:13:36;;;;;;;9.30;8.40;;;;;;;;;;109635;266;890793;-37
2023/09/19 09:16:12;;;;;;;9.70;8.60;;;;;;;;;;110378;263;42946;-37
2023/09/19 09:18:45;;;;;;;9.90;8.90;;;;;;;;;;110182;260;175438;-37
2023/09/19 09:21:21;;;;;;;8.70;7.80;;;;;;;;;;110215;260;175489;-37
2023/09/19 09:23:55;;;;;;;9.80;8.80;;;;;;;;;;110378;259;39658;-36
2023/09/19 09:26:45;;;;;;;10.30;9.20;;;;;;;;;;110314;263;42734;-38
2023/09/19 09:29:19;;;;;;;10.30;9.30;;;;;;;;;;110334;260;50304;-38
2023/09/19 09:31:56;;;;;;;10.50;9.00;;;;;;;;;;110322;266;39904;-37
2023/09/19 09:34:37;;;;;;;10.20;9.10;;;;;;;;;;110384;260;39436;-38
2023/09/19 09:37:17;;;;;;;10.70;9.40;;;;;;;;;;110328;266;42898;-38
2023/09/19 09:40:18;;;;;;;10.00;8.70;;;;;;;;;;110375;266;42214;-38
2023/09/19 09:42:58;;;;;;;9.30;8.40;;;;;;;;;;110301;261;38666;-36
2023/09/19 09:45:38;;;;;;;10.20;8.60;;;;;;;;;;110355;263;39723;-39
2023/09/19 09:48:14;;;;;;;10.20;8.80;;;;;;;;;;110293;266;44327;-39
2023/09/19 09:50:56;;;;;;;9.70;8.70;;;;;;;;;;110391;260;42033;-37
2023/09/19 09:53:32;;;;;;;10.30;8.40;;;;;;;;;;110313;259;174909;-38
2023/09/19 09:56:09;;;;;;;9.10;8.20;;;;;;;;;;110442;266;39741;-37
2023/09/19 09:58:54;;;;;;;9.50;8.50;;;;;;;;;;110357;260;42748;-38
2023/09/19 10:01:31;;;;;;;10.20;8.50;;;;;;;;;;110428;266;42185;-38
2023/09/19 10:04:04;;;;;;;9.20;8.20;;;;;;;;;;110376;258;39129;-38
2023/09/19 10:06:51;;;;;;;9.40;8.50;;;;;;;;;;110333;260;39683;-37
2023/09/19 10:09:27;;;;;;;9.10;7.70;;;;;;;;;;110329;266;43867;-37
2023/09/19 10:12:08;;;;;;;9.30;8.00;;;;;;;;;;110361;260;43391;-38
2023/09/19 10:14:47;;;;;;;9.10;7.80;;;;;;;;;;110405;258;39970;-37
2023/09/19 10:17:23;;;;;;;9.30;8.00;;;;;;;;;;110190;266;175473;-37
2023/09/19 10:19:58;;;;;;;8.90;7.70;;;;;;;;;;110301;260;43182;-37
2023/09/19 10:22:32;;;;;;;8.90;7.60;;;;;;;;;;110364;266;42212;-38
2023/09/19 10:25:13;;;;;;;9.30;7.50;;;;;;;;;;110317;260;38709;-38
2023/09/19 10:27:54;;;;;;;9.60;7.70;;;;;;;;;;110407;260;40776;-38
2023/09/19 10:30:31;;;;;;;9.10;7.10;;;;;;;;;;110316;260;48720;-37
2023/09/19 10:33:09;;;;;;;8.20;6.70;;;;;;;;;;110352;260;42240;-38
2023/09/19 10:35:48;;;;;;;7.80;7.00;;;;;;;;;;110361;260;39833;-38
2023/09/19 10:38:25;;;;;;;7.70;6.80;;;;;;;;;;110310;266;39747;-38
2023/09/19 10:41:00;;;;;;;7.10;6.40;;;;;;;;;;110407;263;49311;-38
2023/09/19 10:43:38;;;;;;;7.60;6.60;;;;;;;;;;110399;266;41965;-37
2023/09/19 10:46:12;;;;;;;8.60;6.40;;;;;;;;;;110421;263;38738;-37
2023/09/19 10:48:49;;;;;;;7.80;6.20;;;;;;;;;;110309;263;39530;-37
2023/09/19 10:51:30;;;;;;;7.10;5.70;;;;;;;;;;110322;266;48984;-37
2023/09/19 10:54:15;;;;;;;7.10;5.80;;;;;;;;;;110231;260;42138;-36
2023/09/19 10:56:52;;;;;;;7.70;5.90;;;;;;;;;;110237;258;38619;-34
2023/09/19 10:59:30;;;;;;;6.80;5.80;;;;;;;;;;110236;263;39535;-37
2023/09/19 11:02:20;;;;;;;7.30;5.80;;;;;;;;;;110267;263;42877;-36
2023/09/19 11:04:54;;;;;;;6.70;5.40;;;;;;;;;;110315;266;42054;-36
2023/09/19 11:07:30;;;;;;;6.60;5.40;;;;;;;;;;110403;266;38777;-37
2023/09/19 11:10:04;;;;;;;6.90;5.50;;;;;;;;;;110307;267;39568;-37
2023/09/19 11:12:55;;;;;;;7.70;5.00;;;;;;;;;;110399;263;42880;-36
2023/09/19 11:16:06;;;;;;;6.50;5.00;;;;;;;;;;110417;266;43643;-36
2023/09/19 11:18:57;;;;;;;6.60;5.10;;;;;;;;;;110413;266;38670;-36
2023/09/19 11:21:56;;;;;;;7.00;5.00;;;;;;;;;;110315;266;39606;-36
2023/09/19 11:24:37;;;;;;;8.10;5.40;;;;;;;;;;110364;266;42462;-36
2023/09/19 11:27:20;;;;;;;7.90;5.20;;;;;;;;;;110380;266;42135;-36
2023/09/19 11:30:30;;;;;;;6.90;4.80;;;;;;;;;;110279;263;38419;-36
2023/09/19 11:33:22;;;;;;;7.60;5.20;;;;;;;;;;110307;263;40021;-36
2023/09/19 11:36:11;;;;;;;7.40;4.80;;;;;;;;;;110339;266;43065;-36
2023/09/19 11:39:08;;;;;;;9.10;5.70;;;;;;;;;;110407;263;43108;-36
2023/09/19 11:41:44;;;;;;;7.20;5.00;;;;;;;;;;110348;266;38707;-36
2023/09/19 11:44:38;;;;;;;6.60;5.10;;;;;;;;;;110369;258;39730;-36
2023/09/19 11:47:14;;;;;;;6.60;4.70;;;;;;;;;;110348;266;42547;-36
2023/09/19 11:49:50;;;;;;;7.20;4.90;;;;;;;;;;110378;263;42020;-36
2023/09/19 11:52:34;;;;;;;6.40;5.00;;;;;;;;;;110321;266;45394;-36
2023/09/19 11:55:10;;;;;;;7.00;5.10;;;;;;;;;;110336;266;39745;-36
2023/09/19 11:57:44;;;;;;;7.90;5.00;;;;;;;;;;110282;266;87330;-36
2023/09/19 12:00:22;;;;;;;6.80;4.80;;;;;;;;;;110325;266;42172;-36
2023/09/19 12:03:01;;;;;;;7.80;5.80;;;;;;;;;;110324;266;46252;-36
2023/09/19 12:05:37;;;;;;;6.40;4.50;;;;;;;;;;110318;266;39678;-36
2023/09/19 12:08:14;;;;;;;7.20;5.20;;;;;;;;;;110313;266;43974;-36
2023/09/19 12:10:52;;;;;;;7.40;5.10;;;;;;;;;;110282;266;41766;-37
2023/09/19 12:13:25;;;;;;;6.60;4.80;;;;;;;;;;110415;266;39701;-37
2023/09/19 12:16:00;;;;;;;7.00;5.30;;;;;;;;;;110331;266;39712;-37
2023/09/19 12:18:35;;;;;;;7.80;6.00;;;;;;;;;;110291;265;42791;-38
2023/09/19 12:21:12;;;;;;;6.90;5.60;;;;;;;;;;110279;260;41984;-38
2023/09/19 12:23:47;;;;;;;7.70;5.60;;;;;;;;;;110338;263;39248;-37
2023/09/19 12:26:24;;;;;;;5.80;4.40;;;;;;;;;;110349;260;39668;-38
2023/09/19 12:28:58;;;;;;;5.70;4.60;;;;;;;;;;110387;266;44169;-37
2023/09/19 12:31:36;;;;;;;6.40;4.70;;;;;;;;;;110269;266;42233;-37
2023/09/19 12:34:14;;;;;;;6.30;4.20;;;;;;;;;;110304;266;38731;-37
2023/09/19 12:36:49;;;;;;;5.60;4.10;;;;;;;;;;110356;263;41073;-37
2023/09/19 12:39:31;;;;;;;5.60;4.00;;;;;;;;;;110348;266;44043;-38
2023/09/19 12:42:08;;;;;;;5.80;4.00;;;;;;;;;;110277;260;42465;-39
2023/09/19 12:44:45;;;;;;;6.00;4.00;;;;;;;;;;110360;266;38670;-36
2023/09/19 12:47:24;;;;;;;6.60;4.20;;;;;;;;;;110368;266;39294;-36
2023/09/19 12:50:17;;;;;;;6.40;5.50;;;;;;;;;;110366;263;43047;-36
2023/09/19 12:52:56;;;;;;;8.50;6.10;;;;;;;;;;110248;263;42414;-36
2023/09/19 12:55:36;;;;;;;6.80;5.90;;;;;;;;;;110330;263;38941;-37
2023/09/19 12:58:17;;;;;;;8.20;6.00;;;;;;;;;;110346;266;39780;-38
2023/09/19 13:00:51;;;;;;;7.30;5.60;;;;;;;;;;110309;266;44283;-36
2023/09/19 13:03:31;;;;;;;7.70;5.20;;;;;;;;;;110342;266;43320;-37
2023/09/19 13:06:07;;;;;;;7.60;5.20;;;;;;;;;;110385;266;39944;-36
2023/09/19 13:08:43;;;;;;;7.00;4.20;;;;;;;;;;110370;263;39538;-37
2023/09/19 13:11:21;;;;;;;6.30;4.40;;;;;;;;;;110358;263;43977;-37
2023/09/19 13:14:20;;;;;;;6.00;4.50;;;;;;;;;;109546;265;889888;-36
2023/09/19 13:17:04;;;;;;;6.90;4.80;;;;;;;;;;110301;263;38716;-37
2023/09/19 13:19:48;;;;;;;6.90;4.60;;;;;;;;;;110416;263;41762;-38
2023/09/19 13:22:41;;;;;;;6.50;4.50;;;;;;;;;;110288;264;43209;-37
2023/09/19 13:25:18;;;;;;;6.20;4.30;;;;;;;;;;110350;258;41953;-37
2023/09/19 13:27:55;;;;;;;7.40;4.80;;;;;;;;;;110344;266;38845;-37
2023/09/19 13:30:31;;;;;;;7.10;4.20;;;;;;;;;;110332;266;39339;-37
2023/09/19 13:33:20;;;;;;;5.90;4.00;;;;;;;;;;110169;266;44051;-37
2023/09/19 13:35:54;;;;;;;5.60;4.00;;;;;;;;;;110285;266;42141;-37
2023/09/19 13:38:29;;;;;;;5.90;4.00;;;;;;;;;;110354;266;38661;-37
2023/09/19 13:41:06;;;;;;;5.80;4.10;;;;;;;;;;110299;263;39817;-37
2023/09/19 13:43:39;;;;;;;6.60;5.10;;;;;;;;;;110310;258;42797;-37
2023/09/19 13:46:16;;;;;;;5.30;4.00;;;;;;;;;;110355;260;43267;-38
2023/09/19 13:48:50;;;;;;;6.30;4.70;;;;;;;;;;110408;263;38754;-37
2023/09/19 13:51:24;;;;;;;5.90;4.30;;;;;;;;;;110257;266;39588;-36
2023/09/19 13:53:57;;;;;;;6.50;4.20;;;;;;;;;;110245;261;42783;-37
2023/09/19 13:56:32;;;;;;;6.90;4.30;;;;;;;;;;110248;263;42429;-36
2023/09/19 13:59:05;;;;;;;6.00;3.80;;;;;;;;;;110288;266;38839;-36
2023/09/19 14:01:39;;;;;;;6.40;4.20;;;;;;;;;;110345;266;39825;-38
2023/09/19 14:04:15;;;;;;;6.00;4.10;;;;;;;;;;110316;266;44605;-37
2023/09/19 14:06:48;;;;;;;6.50;4.30;;;;;;;;;;110391;263;42053;-38
2023/09/19 14:09:23;;;;;;;5.50;4.20;;;;;;;;;;110327;266;38697;-38
2023/09/19 14:11:57;;;;;;;7.20;5.20;;;;;;;;;;110214;266;175370;-39
2023/09/19 14:14:30;;;;;;;6.30;4.80;;;;;;;;;;110320;258;42773;-38
2023/09/19 14:17:04;;;;;;;6.10;4.80;;;;;;;;;;110331;266;42948;-36
2023/09/19 14:19:41;;;;;;;6.40;4.80;;;;;;;;;;110287;266;38918;-37
2023/09/19 14:22:21;;;;;;;6.00;4.40;;;;;;;;;;110347;259;39734;-37
2023/09/19 14:24:54;;;;;;;6.00;4.00;;;;;;;;;;110219;266;43157;-36
2023/09/19 14:27:28;;;;;;;5.90;4.30;;;;;;;;;;110358;266;41888;-37
2023/09/19 14:30:04;;;;;;;6.00;4.50;;;;;;;;;;110161;266;191941;-37
2023/09/19 14:32:37;;;;;;;5.70;4.30;;;;;;;;;;110351;266;39572;-37
2023/09/19 14:35:13;;;;;;;6.00;4.30;;;;;;;;;;110281;266;42950;-37
2023/09/19 14:37:49;;;;;;;6.10;4.10;;;;;;;;;;110360;266;42168;-37
2023/09/19 14:40:23;;;;;;;5.20;4.00;;;;;;;;;;110389;266;38689;-37
2023/09/19 14:42:57;;;;;;;5.30;3.90;;;;;;;;;;110352;258;41909;-37
2023/09/19 14:45:31;;;;;;;5.20;4.10;;;;;;;;;;110290;260;43077;-36
2023/09/19 14:48:14;;;;;;;6.30;4.50;;;;;;;;;;110345;266;42215;-37
2023/09/19 14:50:50;;;;;;;;;;;;;;;;;;110328;264;38689;-39
2023/09/19 14:53:27;;;;;;;6.00;4.40;;;;;;;;;;110302;263;39778;-38
2023/09/19 14:56:04;;;;;;;6.20;4.20;;;;;;;;;;110293;263;42894;-39
2023/09/19 14:58:39;;;;;;;5.20;4.00;;;;;;;;;;110369;260;42023;-39
2023/09/19 15:01:14;;;;;;;5.40;3.60;;;;;;;;;;110371;260;40114;-37
2023/09/19 15:03:51;;;;;;;5.70;3.70;;;;;;;;;;110219;268;39755;-39
2023/09/19 15:06:29;;;;;;;5.60;3.70;;;;;;;;;;110284;267;49697;-40
2023/09/19 15:09:08;;;;;;;5.10;3.70;;;;;;;;;;110291;267;42128;-39
2023/09/19 15:11:42;;;;;;;5.40;3.90;;;;;;;;;;110213;267;38472;-40
2023/09/19 15:14:17;;;;;;;5.50;3.50;;;;;;;;;;110222;267;39558;-39
2023/09/19 15:16:52;;;;;;;4.70;3.60;;;;;;;;;;110300;267;49229;-39
2023/09/19 15:19:28;;;;;;;4.90;4.00;;;;;;;;;;110294;267;41963;-38
2023/09/19 15:22:03;;;;;;;5.00;3.50;;;;;;;;;;110273;267;38794;-38
2023/09/19 15:24:38;;;;;;;4.70;3.40;;;;;;;;;;110257;267;39760;-38
2023/09/19 15:27:16;;;;;;;5.30;3.50;;;;;;;;;;110301;267;49325;-38
2023/09/19 15:29:50;;;;;;;6.00;3.50;;;;;;;;;;110196;267;44132;-38
2023/09/19 15:32:25;;;;;;;4.80;3.60;;;;;;;;;;110281;267;38684;-38
2023/09/19 15:35:02;;;;;;;5.30;3.60;;;;;;;;;;110222;267;39773;-38
2023/09/19 15:37:37;;;;;;;4.50;3.50;;;;;;;;;;110255;267;50532;-38